createdAt,value
2022-08-10T00:00:27.004Z,17.84
2022-08-10T00:01:27.013Z,17.70
2022-08-10T00:02:27.173Z,17.70
2022-08-10T00:03:26.970Z,17.62
2022-08-10T00:04:26.987Z,17.66
2022-08-10T00:05:26.897Z,17.62
2022-08-10T00:06:27.915Z,17.60
2022-08-10T00:07:26.907Z,17.68
2022-08-10T00:08:26.914Z,17.53
2022-08-10T00:09:26.966Z,17.65
2022-08-10T00:10:26.878Z,17.70
2022-08-10T00:11:26.961Z,17.60
2022-08-10T00:12:53.539Z,17.58
2022-08-10T00:13:27.891Z,17.70
2022-08-10T00:14:26.869Z,17.76
2022-08-10T00:15:53.339Z,17.76
2022-08-10T00:16:27.866Z,17.66
2022-08-10T00:17:26.887Z,17.81
2022-08-10T00:18:35.600Z,17.86
2022-08-10T00:19:27.852Z,17.83
2022-08-10T00:20:27.823Z,17.96
2022-08-10T00:21:27.198Z,18.05
2022-08-10T00:22:26.913Z,18.02
2022-08-10T00:23:26.932Z,17.63
2022-08-10T00:24:26.861Z,17.77
2022-08-10T00:25:26.844Z,17.71
2022-08-10T00:26:26.833Z,17.77
2022-08-10T00:28:00.881Z,17.80
2022-08-10T00:28:27.783Z,17.71
2022-08-10T00:29:26.779Z,17.92
2022-08-10T00:30:26.804Z,18.02
2022-08-10T00:31:26.763Z,17.98
2022-08-10T00:32:26.816Z,17.89
2022-08-10T00:33:26.774Z,17.92
2022-08-10T00:34:26.850Z,17.95
2022-08-10T00:35:26.781Z,17.87
2022-08-10T00:36:26.744Z,17.80
2022-08-10T00:37:27.749Z,17.84
2022-08-10T00:38:26.755Z,17.80
2022-08-10T00:39:26.886Z,17.66
2022-08-10T00:40:35.214Z,17.54
2022-08-10T00:41:27.754Z,17.73
2022-08-10T00:42:26.735Z,17.86
2022-08-10T00:43:26.696Z,17.81
2022-08-10T00:44:26.721Z,17.62
2022-08-10T00:45:26.726Z,17.57
2022-08-10T00:46:26.695Z,17.42
2022-08-10T00:47:37.209Z,17.38
2022-08-10T00:48:28.146Z,17.38
2022-08-10T00:49:26.672Z,17.42
2022-08-10T00:50:26.655Z,17.51
2022-08-10T00:51:40.345Z,17.55
2022-08-10T00:52:27.719Z,17.54
2022-08-10T00:53:26.671Z,17.65
2022-08-10T00:54:26.702Z,17.47
2022-08-10T00:55:26.634Z,17.20
2022-08-10T00:56:39.784Z,17.12
2022-08-10T00:57:27.618Z,17.28
2022-08-10T00:58:26.602Z,17.38
2022-08-10T00:59:26.607Z,17.33
2022-08-10T01:00:26.614Z,17.47
2022-08-10T01:02:09.904Z,17.25
2022-08-10T01:02:27.717Z,17.12
2022-08-10T01:04:58.090Z,16.82
2022-08-10T01:04:58.531Z,16.90
2022-08-10T01:05:27.581Z,16.84
2022-08-10T01:06:26.630Z,16.92
2022-08-10T01:07:26.604Z,16.92
2022-08-10T01:08:26.622Z,16.96
2022-08-10T01:09:26.544Z,16.92
2022-08-10T01:10:26.606Z,16.65
2022-08-10T01:12:38.821Z,16.47
2022-08-10T01:12:39.223Z,16.59
2022-08-10T01:13:27.559Z,16.44
2022-08-10T01:14:26.501Z,16.52
2022-08-10T01:15:26.538Z,16.51
2022-08-10T01:16:26.606Z,16.66
2022-08-10T01:17:49.850Z,16.63
2022-08-10T01:18:27.507Z,16.66
2022-08-10T01:19:26.486Z,16.77
2022-08-10T01:20:30.607Z,16.85
2022-08-10T01:21:26.449Z,16.96
2022-08-10T01:22:26.547Z,16.88
2022-08-10T01:23:26.520Z,16.70
2022-08-10T01:24:26.444Z,16.59
2022-08-10T01:25:26.486Z,16.62
2022-08-10T01:26:31.477Z,16.27
2022-08-10T01:27:27.665Z,16.42
2022-08-10T01:28:26.419Z,16.52
2022-08-10T01:29:26.476Z,16.37
2022-08-10T01:30:26.581Z,16.30
2022-08-10T01:31:26.394Z,16.17
2022-08-10T01:32:26.450Z,16.13
2022-08-10T01:33:57.841Z,16.07
2022-08-10T01:34:27.418Z,15.98
2022-08-10T01:35:26.416Z,16.10
2022-08-10T01:36:32.512Z,16.26
2022-08-10T01:37:27.389Z,16.17
2022-08-10T01:38:27.328Z,16.26
2022-08-10T01:39:26.437Z,16.48
2022-08-10T01:40:26.378Z,16.60
2022-08-10T01:41:26.378Z,16.73
2022-08-10T01:42:26.385Z,16.92
2022-08-10T01:43:26.408Z,16.90
2022-08-10T01:44:26.316Z,16.99
2022-08-10T01:45:26.350Z,16.81
2022-08-10T01:46:26.378Z,16.65
2022-08-10T01:47:26.313Z,16.67
2022-08-10T01:48:27.296Z,16.51
2022-08-10T01:49:26.302Z,16.32
2022-08-10T01:50:26.349Z,16.18
2022-08-10T01:51:26.289Z,16.08
2022-08-10T01:52:26.552Z,16.08
2022-08-10T01:53:26.269Z,16.17
2022-08-10T01:54:26.297Z,16.29
2022-08-10T01:55:26.304Z,16.45
2022-08-10T01:56:26.282Z,16.52
2022-08-10T01:57:26.282Z,16.57
2022-08-10T01:58:26.255Z,16.73
2022-08-10T01:59:26.257Z,16.85
2022-08-10T02:00:26.216Z,16.87
2022-08-10T02:01:26.281Z,16.78
2022-08-10T02:02:26.270Z,16.73
2022-08-10T02:03:26.221Z,16.84
2022-08-10T02:04:26.208Z,16.73
2022-08-10T02:05:26.229Z,16.66
2022-08-10T02:06:26.159Z,16.66
2022-08-10T02:07:26.174Z,16.90
2022-08-10T02:08:26.151Z,17.02
2022-08-10T02:09:26.190Z,16.90
2022-08-10T02:10:26.183Z,17.00
2022-08-10T02:11:26.156Z,17.02
2022-08-10T02:12:27.214Z,17.10
2022-08-10T02:13:26.151Z,17.21
2022-08-10T02:14:26.153Z,17.22
2022-08-10T02:15:27.151Z,17.42
2022-08-10T02:16:26.120Z,17.36
2022-08-10T02:17:59.125Z,17.35
2022-08-10T02:18:27.114Z,17.42
2022-08-10T02:19:26.098Z,17.43
2022-08-10T02:20:26.100Z,17.22
2022-08-10T02:21:27.097Z,17.10
2022-08-10T02:22:37.971Z,16.80
2022-08-10T02:23:27.044Z,16.40
2022-08-10T02:24:26.086Z,16.16
2022-08-10T02:25:41.476Z,16.26
2022-08-10T02:26:27.040Z,16.37
2022-08-10T02:27:26.123Z,16.42
2022-08-10T02:28:30.158Z,16.44
2022-08-10T02:29:26.028Z,16.13
2022-08-10T02:30:26.046Z,15.88
2022-08-10T02:31:26.037Z,15.91
2022-08-10T02:32:38.271Z,15.92
2022-08-10T02:33:27.046Z,15.71
2022-08-10T02:34:26.985Z,15.44
2022-08-10T02:35:26.044Z,15.31
2022-08-10T02:36:26.003Z,15.16
2022-08-10T02:37:25.990Z,15.30
2022-08-10T02:38:58.742Z,15.40
2022-08-10T02:39:26.984Z,15.46
2022-08-10T02:45:01.911Z,15.44
2022-08-10T02:45:12.733Z,15.67
2022-08-10T02:45:18.216Z,15.76
2022-08-10T02:45:19.191Z,15.96
2022-08-10T02:45:27.429Z,15.91
2022-08-10T02:45:30.876Z,16.11
2022-08-10T02:46:26.952Z,16.04
2022-08-10T02:47:25.974Z,16.08
2022-08-10T02:48:25.891Z,15.60
2022-08-10T02:49:25.906Z,15.27
2022-08-10T02:50:25.883Z,15.31
2022-08-10T02:52:07.970Z,15.49
2022-08-10T02:52:26.947Z,15.51
2022-08-10T02:53:56.053Z,15.40
2022-08-10T02:54:26.869Z,15.68
2022-08-10T02:55:26.972Z,15.73
2022-08-10T02:56:25.865Z,15.85
2022-08-10T02:57:25.830Z,15.68
2022-08-10T02:58:25.822Z,15.66
2022-08-10T02:59:25.845Z,15.76
2022-08-10T03:00:25.860Z,15.85
2022-08-10T03:01:25.954Z,15.95
2022-08-10T03:02:25.867Z,16.11
2022-08-10T03:03:25.794Z,16.17
2022-08-10T03:04:55.090Z,16.36
2022-08-10T03:05:26.791Z,16.37
2022-08-10T03:06:25.800Z,16.34
2022-08-10T03:07:42.968Z,16.47
2022-08-10T03:08:26.756Z,16.36
2022-08-10T03:09:25.774Z,16.04
2022-08-10T03:10:25.749Z,15.96
2022-08-10T03:12:35.897Z,15.71
2022-08-10T03:12:38.404Z,15.70
2022-08-10T03:13:26.722Z,15.71
2022-08-10T03:14:25.750Z,15.81
2022-08-10T03:15:25.779Z,15.95
2022-08-10T03:16:25.692Z,15.58
2022-08-10T03:17:26.688Z,15.33
2022-08-10T03:18:25.715Z,15.22
2022-08-10T03:20:33.908Z,15.22
2022-08-10T03:20:38.176Z,15.20
2022-08-10T03:21:26.659Z,15.20
2022-08-10T03:22:25.650Z,15.25
2022-08-10T03:23:25.670Z,15.31
2022-08-10T03:24:32.597Z,15.44
2022-08-10T03:25:26.668Z,15.55
2022-08-10T03:26:25.679Z,15.59
2022-08-10T03:27:25.627Z,15.60
2022-08-10T03:28:25.602Z,15.71
2022-08-10T03:29:25.613Z,15.80
2022-08-10T03:30:33.537Z,15.66
2022-08-10T03:31:26.606Z,15.48
2022-08-10T03:32:25.664Z,15.49
2022-08-10T03:33:25.591Z,15.33
2022-08-10T03:34:33.096Z,15.44
2022-08-10T03:35:26.587Z,15.46
2022-08-10T03:36:43.573Z,15.44
2022-08-10T03:37:26.643Z,15.23
2022-08-10T03:38:25.539Z,14.98
2022-08-10T03:39:25.587Z,14.94
2022-08-10T03:40:25.540Z,15.04
2022-08-10T03:41:26.529Z,15.19
2022-08-10T03:42:25.575Z,15.27
2022-08-10T03:43:25.517Z,15.09
2022-08-10T03:44:25.508Z,14.57
2022-08-10T03:45:25.545Z,14.59
2022-08-10T03:46:25.486Z,14.86
2022-08-10T03:47:25.534Z,15.04
2022-08-10T03:48:32.149Z,15.18
2022-08-10T03:49:26.476Z,15.27
2022-08-10T03:50:46.119Z,15.40
2022-08-10T03:51:26.466Z,15.44
2022-08-10T03:52:25.447Z,15.43
2022-08-10T03:54:03.791Z,15.37
2022-08-10T03:54:26.444Z,15.40
2022-08-10T03:56:27.277Z,15.56
2022-08-10T03:56:28.631Z,15.66
2022-08-10T03:57:25.415Z,15.68
2022-08-10T03:58:25.434Z,15.81
2022-08-10T03:59:25.436Z,15.91
2022-08-10T04:00:25.434Z,15.91
2022-08-10T04:02:45.457Z,15.93
2022-08-10T04:02:46.396Z,15.88
2022-08-10T04:03:29.346Z,16.06
2022-08-10T04:04:25.920Z,16.18
2022-08-10T04:05:25.361Z,16.18
2022-08-10T04:06:26.357Z,16.17
2022-08-10T04:07:25.373Z,16.25
2022-08-10T04:08:25.357Z,16.25
2022-08-10T04:09:42.940Z,16.14
2022-08-10T04:10:26.388Z,16.27
2022-08-10T04:11:25.372Z,16.18
2022-08-10T04:12:25.410Z,16.08
2022-08-10T04:13:25.342Z,15.78
2022-08-10T04:14:47.356Z,15.59
2022-08-10T04:15:26.321Z,15.66
2022-08-10T04:16:25.295Z,15.77
2022-08-10T04:18:01.192Z,15.88
2022-08-10T04:18:26.279Z,15.85
2022-08-10T04:19:25.248Z,16.04
2022-08-10T04:20:25.319Z,15.98
2022-08-10T04:21:25.263Z,16.04
2022-08-10T04:22:25.257Z,16.18
2022-08-10T04:23:25.234Z,16.17
2022-08-10T04:24:30.040Z,15.89
2022-08-10T04:25:26.288Z,15.60
2022-08-10T04:26:25.193Z,15.30
2022-08-10T04:27:25.202Z,15.23
2022-08-10T04:28:25.202Z,15.33
2022-08-10T04:29:25.190Z,15.41
2022-08-10T04:30:25.259Z,15.33
2022-08-10T04:31:25.195Z,15.43
2022-08-10T04:32:25.200Z,15.84
2022-08-10T04:33:25.179Z,16.14
2022-08-10T04:34:25.181Z,16.42
2022-08-10T04:35:25.221Z,16.77
2022-08-10T04:36:25.214Z,17.10
2022-08-10T04:37:25.142Z,17.39
2022-08-10T04:38:25.141Z,17.68
2022-08-10T04:39:25.182Z,18.05
2022-08-10T04:40:29.394Z,18.39
2022-08-10T04:41:25.157Z,18.39
2022-08-10T04:42:25.143Z,18.41
2022-08-10T04:43:25.137Z,18.53
2022-08-10T04:44:25.081Z,18.68
2022-08-10T04:45:25.108Z,18.74
2022-08-10T04:46:42.611Z,18.97
2022-08-10T04:47:57.350Z,19.09
2022-08-10T04:48:40.956Z,19.05
2022-08-10T04:49:53.932Z,19.20
2022-08-10T04:50:26.045Z,19.27
2022-08-10T04:51:25.035Z,19.02
2022-08-10T04:52:25.197Z,18.51
2022-08-10T04:53:26.093Z,18.31
2022-08-10T04:54:25.067Z,18.56
2022-08-10T04:55:25.042Z,19.05
2022-08-10T04:56:31.546Z,19.45
2022-08-10T04:57:26.022Z,19.89
2022-08-10T04:58:25.114Z,20.16
2022-08-10T04:59:25.005Z,20.50
2022-08-10T05:00:24.972Z,20.79
2022-08-10T05:01:25.179Z,20.83
2022-08-10T05:02:29.254Z,21.12
2022-08-10T05:03:25.011Z,21.28
2022-08-10T05:04:34.355Z,21.37
2022-08-10T05:05:25.953Z,21.55
2022-08-10T05:06:24.976Z,21.68
2022-08-10T05:07:24.943Z,21.74
2022-08-10T05:08:24.916Z,22.06
2022-08-10T05:09:24.964Z,22.44
2022-08-10T05:10:24.921Z,22.46
2022-08-10T05:11:24.941Z,22.48
2022-08-10T05:12:24.897Z,21.99
2022-08-10T05:13:24.929Z,21.61
2022-08-10T05:14:24.941Z,21.67
2022-08-10T05:15:24.917Z,21.71
2022-08-10T05:16:32.350Z,21.66
2022-08-10T05:17:25.854Z,21.26
2022-08-10T05:18:24.935Z,21.16
2022-08-10T05:20:04.905Z,21.53
2022-08-10T05:20:26.867Z,21.58
2022-08-10T05:22:02.946Z,21.96
2022-08-10T05:22:25.833Z,22.06
2022-08-10T05:23:24.855Z,22.11
2022-08-10T05:24:24.840Z,22.19
2022-08-10T05:25:24.872Z,22.09
2022-08-10T05:26:24.858Z,22.24
2022-08-10T05:27:24.784Z,22.31
2022-08-10T05:28:24.849Z,22.52
2022-08-10T05:29:25.784Z,22.52
2022-08-10T05:30:24.910Z,22.76
2022-08-10T05:31:24.780Z,22.94
2022-08-10T05:32:24.795Z,22.86
2022-08-10T05:33:24.776Z,22.96
2022-08-10T05:34:24.786Z,23.07
2022-08-10T05:35:24.808Z,23.16
2022-08-10T05:36:24.800Z,22.81
2022-08-10T05:38:12.444Z,22.82
2022-08-10T05:38:25.827Z,22.84
2022-08-10T05:39:28.796Z,22.82
2022-08-10T05:40:25.835Z,22.93
2022-08-10T05:41:24.815Z,22.96
2022-08-10T05:42:24.736Z,22.94
2022-08-10T05:43:24.691Z,22.82
2022-08-10T05:44:24.683Z,22.99
2022-08-10T05:45:24.676Z,22.82
2022-08-10T05:46:24.677Z,22.91
2022-08-10T05:47:24.679Z,22.88
2022-08-10T05:48:55.715Z,22.93
2022-08-10T05:49:25.656Z,22.78
2022-08-10T05:50:24.665Z,22.89
2022-08-10T05:51:24.655Z,22.82
2022-08-10T05:52:24.664Z,22.72
2022-08-10T05:54:02.655Z,22.60
2022-08-10T05:54:25.622Z,22.48
2022-08-10T05:55:24.624Z,22.49
2022-08-10T05:56:24.591Z,22.75
2022-08-10T05:57:24.600Z,22.78
2022-08-10T05:58:24.608Z,22.89
2022-08-10T06:00:33.120Z,22.94
2022-08-10T06:00:37.305Z,23.11
2022-08-10T06:01:25.623Z,23.18
2022-08-10T06:02:32.922Z,23.31
2022-08-10T06:03:25.573Z,23.38
2022-08-10T06:04:24.547Z,23.47
2022-08-10T06:05:24.559Z,23.50
2022-08-10T06:06:25.113Z,23.54
2022-08-10T06:07:25.635Z,23.60
2022-08-10T06:08:24.900Z,23.68
2022-08-10T06:09:24.514Z,23.74
2022-08-10T06:10:31.122Z,23.71
2022-08-10T06:12:27.437Z,23.75
2022-08-10T06:12:28.982Z,23.71
2022-08-10T06:13:29.899Z,23.69
2022-08-10T06:14:28.573Z,23.57
2022-08-10T06:15:51.382Z,23.32
2022-08-10T06:16:25.516Z,23.12
2022-08-10T06:17:24.478Z,22.96
2022-08-10T06:18:24.482Z,22.72
2022-08-10T06:19:24.500Z,22.56
2022-08-10T06:20:24.450Z,22.44
2022-08-10T06:21:24.526Z,22.35
2022-08-10T06:22:24.418Z,22.02
2022-08-10T06:23:24.423Z,22.08
2022-08-10T06:24:25.557Z,22.02
2022-08-10T06:26:11.888Z,21.79
2022-08-10T06:26:26.445Z,21.85
2022-08-10T06:27:34.547Z,21.75
2022-08-10T06:28:25.453Z,21.82
2022-08-10T06:29:24.438Z,21.98
2022-08-10T06:30:24.369Z,22.06
2022-08-10T06:31:24.443Z,22.30
2022-08-10T06:32:24.377Z,22.46
2022-08-10T06:33:24.414Z,22.59
2022-08-10T06:34:24.375Z,22.61
2022-08-10T06:35:24.360Z,22.49
2022-08-10T06:36:24.328Z,22.39
2022-08-10T06:37:25.346Z,22.20
2022-08-10T06:38:24.307Z,22.06
2022-08-10T06:39:36.894Z,21.98
2022-08-10T06:40:26.408Z,22.14
2022-08-10T06:41:24.285Z,22.29
2022-08-10T06:42:25.350Z,22.42
2022-08-10T06:43:24.317Z,22.67
2022-08-10T06:44:24.281Z,22.76
2022-08-10T06:45:24.314Z,22.81
2022-08-10T06:46:24.252Z,22.88
2022-08-10T06:47:24.322Z,23.12
2022-08-10T06:48:24.330Z,23.21
2022-08-10T06:49:24.295Z,23.23
2022-08-10T06:50:44.473Z,23.32
2022-08-10T06:51:25.209Z,23.44
2022-08-10T06:52:24.198Z,23.52
2022-08-10T06:53:24.228Z,23.49
2022-08-10T06:54:25.198Z,23.49
2022-08-10T06:55:39.778Z,23.59
2022-08-10T06:56:35.931Z,23.57
2022-08-10T06:57:25.165Z,23.35
2022-08-10T06:58:26.953Z,23.63
2022-08-10T06:59:24.181Z,23.62
2022-08-10T07:00:24.283Z,23.69
2022-08-10T07:01:25.211Z,23.67
2022-08-10T07:02:24.177Z,23.69
2022-08-10T07:03:24.146Z,23.72
2022-08-10T07:04:32.247Z,23.78
2022-08-10T07:05:25.130Z,24.00
2022-08-10T07:06:24.146Z,24.04
2022-08-10T07:07:24.144Z,24.05
2022-08-10T07:08:24.113Z,23.93
2022-08-10T07:09:24.141Z,23.67
2022-08-10T07:10:24.118Z,23.86
2022-08-10T07:11:24.100Z,23.90
2022-08-10T07:12:24.083Z,23.96
2022-08-10T07:14:14.687Z,24.02
2022-08-10T07:14:25.098Z,23.59
2022-08-10T07:15:24.088Z,23.68
2022-08-10T07:16:25.043Z,23.68
2022-08-10T07:17:24.070Z,23.82
2022-08-10T07:18:24.115Z,23.41
2022-08-10T07:19:24.065Z,23.59
2022-08-10T07:20:24.040Z,23.69
2022-08-10T07:21:24.045Z,23.75
2022-08-10T07:23:54.584Z,23.72
2022-08-10T07:23:57.054Z,23.42
2022-08-10T07:24:25.075Z,23.09
2022-08-10T07:25:24.005Z,23.00
2022-08-10T07:26:24.009Z,23.26
2022-08-10T07:27:23.980Z,23.54
2022-08-10T07:28:23.989Z,23.82
2022-08-10T07:29:52.824Z,24.16
2022-08-10T07:30:24.985Z,24.04
2022-08-10T07:31:55.171Z,23.84
2022-08-10T07:32:24.990Z,23.67
2022-08-10T07:33:23.935Z,23.63
2022-08-10T07:34:29.890Z,23.64
2022-08-10T07:35:24.921Z,23.22
2022-08-10T07:36:23.963Z,23.01
2022-08-10T07:37:23.932Z,23.44
2022-08-10T07:38:23.939Z,23.32
2022-08-10T07:40:02.579Z,23.22
2022-08-10T07:40:24.943Z,23.34
2022-08-10T07:41:23.888Z,23.18
2022-08-10T07:42:23.961Z,23.41
2022-08-10T07:43:23.874Z,23.64
2022-08-10T07:44:23.898Z,23.67
2022-08-10T07:45:23.867Z,23.25
2022-08-10T07:46:23.844Z,23.47
2022-08-10T07:47:52.378Z,23.64
2022-08-10T07:48:25.838Z,23.78
2022-08-10T07:49:23.858Z,23.63
2022-08-10T07:50:23.865Z,23.52
2022-08-10T07:51:23.841Z,23.68
2022-08-10T07:52:23.818Z,23.78
2022-08-10T07:53:23.787Z,24.12
2022-08-10T07:54:23.821Z,24.18
2022-08-10T07:56:05.145Z,24.39
2022-08-10T07:56:47.473Z,24.52
2022-08-10T07:57:31.115Z,24.27
2022-08-10T07:58:24.896Z,24.45
2022-08-10T07:59:23.835Z,24.77
2022-08-10T08:00:23.774Z,24.90
2022-08-10T08:01:23.795Z,24.84
2022-08-10T08:02:23.727Z,24.42
2022-08-10T08:03:23.730Z,24.26
2022-08-10T08:04:23.766Z,24.49
2022-08-10T08:05:54.918Z,25.05
2022-08-10T08:06:24.727Z,24.75
2022-08-10T08:07:23.699Z,24.86
2022-08-10T08:08:23.687Z,24.79
2022-08-10T08:09:23.712Z,24.30
2022-08-10T08:10:23.669Z,24.05
2022-08-10T08:11:26.157Z,24.09
2022-08-10T08:12:23.720Z,24.48
2022-08-10T08:13:23.697Z,24.59
2022-08-10T08:14:23.670Z,24.18
2022-08-10T08:16:19.417Z,24.12
2022-08-10T08:16:24.661Z,24.24
2022-08-10T08:17:23.671Z,24.41
2022-08-10T08:18:25.446Z,24.66
2022-08-10T08:19:30.582Z,24.39
2022-08-10T08:20:25.660Z,24.23
2022-08-10T08:24:05.631Z,24.56
2022-08-10T08:24:05.689Z,24.14
2022-08-10T08:24:07.955Z,23.94
2022-08-10T08:24:30.122Z,24.87
2022-08-10T08:25:24.616Z,25.14
2022-08-10T08:26:23.664Z,25.38
2022-08-10T08:27:23.587Z,25.41
2022-08-10T08:28:23.593Z,25.60
2022-08-10T08:29:23.604Z,25.74
2022-08-10T08:30:27.047Z,25.57
2022-08-10T08:31:23.550Z,25.71
2022-08-10T08:32:24.602Z,25.94
2022-08-10T08:33:41.689Z,26.09
2022-08-10T08:34:24.538Z,26.28
2022-08-10T08:35:23.660Z,26.56
2022-08-10T08:36:23.549Z,26.76
2022-08-10T08:38:32.004Z,26.94
2022-08-10T08:38:32.893Z,25.98
2022-08-10T08:39:24.581Z,25.19
2022-08-10T08:40:23.563Z,25.22
2022-08-10T08:41:23.505Z,25.53
2022-08-10T08:42:23.541Z,25.74
2022-08-10T08:43:26.299Z,25.71
2022-08-10T08:44:24.504Z,25.66
2022-08-10T08:45:23.508Z,25.64
2022-08-10T08:46:23.466Z,25.85
2022-08-10T08:48:03.595Z,26.19
2022-08-10T08:48:24.514Z,26.24
2022-08-10T08:50:08.449Z,26.39
2022-08-10T08:50:24.513Z,26.71
2022-08-10T08:52:09.927Z,26.17
2022-08-10T08:52:24.478Z,25.69
2022-08-10T08:53:23.451Z,25.85
2022-08-10T08:54:23.419Z,25.96
2022-08-10T08:56:03.324Z,26.21
2022-08-10T08:56:24.519Z,26.36
2022-08-10T08:57:47.997Z,26.38
2022-08-10T08:58:24.429Z,26.54
2022-08-10T08:59:23.411Z,26.21
2022-08-10T09:00:23.662Z,26.09
2022-08-10T09:01:23.470Z,26.49
2022-08-10T09:02:24.382Z,26.36
2022-08-10T09:03:27.932Z,26.35
2022-08-10T09:04:25.431Z,26.68
2022-08-10T09:05:23.378Z,26.91
2022-08-10T09:06:23.395Z,26.87
2022-08-10T09:07:59.032Z,26.97
2022-08-10T09:08:24.415Z,26.49
2022-08-10T09:09:24.317Z,26.12
2022-08-10T09:10:23.338Z,26.17
2022-08-10T09:11:23.300Z,25.79
2022-08-10T09:12:23.364Z,25.54
2022-08-10T09:13:23.319Z,25.78
2022-08-10T09:14:25.660Z,26.13
2022-08-10T09:15:39.597Z,26.20
2022-08-10T09:16:24.337Z,26.56
2022-08-10T09:17:23.344Z,26.19
2022-08-10T09:18:23.260Z,26.17
2022-08-10T09:19:36.485Z,26.41
2022-08-10T09:20:24.249Z,26.76
2022-08-10T09:21:23.299Z,27.23
2022-08-10T09:22:23.267Z,26.94
2022-08-10T09:23:23.249Z,26.83
2022-08-10T09:24:24.297Z,26.83
2022-08-10T09:25:23.234Z,27.13
2022-08-10T09:26:23.287Z,27.50
2022-08-10T09:27:23.233Z,27.62
2022-08-10T09:28:26.805Z,27.88
2022-08-10T09:29:23.231Z,27.12
2022-08-10T09:30:29.102Z,27.25
2022-08-10T09:31:25.866Z,26.83
2022-08-10T09:36:13.601Z,26.38
2022-08-10T09:36:20.906Z,26.72
2022-08-10T09:36:22.618Z,26.57
2022-08-10T09:36:26.781Z,26.61
2022-08-10T09:36:32.971Z,27.16
2022-08-10T09:38:01.405Z,27.08
2022-08-10T09:38:24.215Z,26.97
2022-08-10T09:40:12.686Z,27.13
2022-08-10T09:41:00.229Z,27.62
2022-08-10T09:41:24.345Z,27.45
2022-08-10T09:42:23.138Z,27.16
2022-08-10T09:43:25.478Z,26.75
2022-08-10T09:44:24.156Z,26.87
2022-08-10T09:45:23.180Z,27.63
2022-08-10T09:46:23.117Z,27.93
2022-08-10T09:47:23.079Z,27.74
2022-08-10T09:48:24.107Z,27.90
2022-08-10T09:49:52.914Z,27.59
2022-08-10T09:50:24.084Z,27.43
2022-08-10T09:51:44.173Z,27.61
2022-08-10T09:52:25.034Z,27.65
2022-08-10T09:53:23.041Z,27.69
2022-08-10T09:54:23.051Z,27.49
2022-08-10T09:55:23.167Z,27.11
2022-08-10T09:56:28.579Z,26.72
2022-08-10T09:57:44.016Z,26.71
2022-08-10T09:58:25.022Z,27.15
2022-08-10T09:59:59.162Z,27.43
2022-08-10T10:00:24.001Z,27.76
2022-08-10T10:02:00.308Z,27.80
2022-08-10T10:02:24.009Z,27.83
2022-08-10T10:03:26.010Z,27.42
2022-08-10T10:04:23.991Z,27.58
2022-08-10T10:05:22.962Z,27.59
2022-08-10T10:06:22.981Z,27.91
2022-08-10T10:07:22.981Z,28.17
2022-08-10T10:08:23.031Z,28.55
2022-08-10T10:09:26.971Z,28.79
2022-08-10T10:10:22.963Z,29.02
2022-08-10T10:11:22.963Z,29.36
2022-08-10T10:12:22.931Z,28.80
2022-08-10T10:13:50.078Z,28.28
2022-08-10T10:14:23.971Z,27.68
2022-08-10T10:15:24.391Z,27.80
2022-08-10T10:16:22.895Z,27.72
2022-08-10T10:17:22.912Z,28.23
2022-08-10T10:18:22.902Z,28.28
2022-08-10T10:19:22.897Z,28.33
2022-08-10T10:20:22.875Z,28.30
2022-08-10T10:21:23.981Z,28.36
2022-08-10T10:22:23.877Z,28.55
2022-08-10T10:23:22.933Z,28.24
2022-08-10T10:24:23.080Z,28.39
2022-08-10T10:25:23.853Z,28.38
2022-08-10T10:26:23.895Z,28.21
2022-08-10T10:27:22.880Z,27.98
2022-08-10T10:28:22.867Z,27.68
2022-08-10T10:29:57.129Z,27.49
2022-08-10T10:30:24.872Z,27.43
2022-08-10T10:31:22.899Z,27.87
2022-08-10T10:32:22.807Z,28.43
2022-08-10T10:33:22.836Z,28.18
2022-08-10T10:34:23.928Z,27.98
2022-08-10T10:35:22.833Z,27.45
2022-08-10T10:36:22.822Z,27.45
2022-08-10T10:38:01.318Z,27.87
2022-08-10T10:38:23.787Z,28.27
2022-08-10T10:39:24.135Z,28.74
2022-08-10T10:40:23.747Z,28.33
2022-08-10T10:41:22.749Z,28.08
2022-08-10T10:42:44.334Z,28.38
2022-08-10T10:43:24.828Z,28.67
2022-08-10T10:44:22.799Z,28.85
2022-08-10T10:45:22.858Z,28.65
2022-08-10T10:46:22.735Z,28.36
2022-08-10T10:47:22.715Z,28.61
2022-08-10T10:48:29.083Z,28.91
2022-08-10T10:49:23.689Z,29.07
2022-08-10T10:50:22.670Z,28.89
2022-08-10T10:51:22.716Z,28.72
2022-08-10T10:52:22.713Z,28.57
2022-08-10T10:53:22.685Z,28.32
2022-08-10T10:54:22.664Z,28.45
2022-08-10T10:55:22.666Z,28.58
2022-08-10T10:56:22.750Z,28.95
2022-08-10T10:57:22.857Z,28.64
2022-08-10T10:58:27.879Z,28.54
2022-08-10T10:59:54.895Z,28.32
2022-08-10T11:00:23.656Z,28.52
2022-08-10T11:01:22.680Z,28.67
2022-08-10T11:02:22.649Z,28.21
2022-08-10T11:03:22.604Z,28.06
2022-08-10T11:04:22.577Z,28.45
2022-08-10T11:05:22.611Z,28.97
2022-08-10T11:06:27.278Z,28.62
2022-08-10T11:07:23.861Z,28.62
2022-08-10T11:08:29.205Z,28.60
2022-08-10T11:10:03.349Z,29.03
2022-08-10T11:10:33.805Z,29.23
2022-08-10T11:12:01.372Z,28.83
2022-08-10T11:12:26.259Z,28.67
2022-08-10T11:14:25.776Z,28.79
2022-08-10T11:14:29.341Z,28.85
2022-08-10T11:15:23.627Z,28.79
2022-08-10T11:16:22.559Z,28.42
2022-08-10T11:17:22.544Z,28.52
2022-08-10T11:18:22.508Z,28.32
2022-08-10T11:19:22.538Z,28.27
2022-08-10T11:20:22.489Z,28.20
2022-08-10T11:21:22.523Z,28.06
2022-08-10T11:22:22.488Z,28.14
2022-08-10T11:23:22.487Z,27.91
2022-08-10T11:24:47.784Z,28.18
2022-08-10T11:25:23.459Z,28.51
2022-08-10T11:26:22.467Z,28.92
2022-08-10T11:27:22.607Z,29.30
2022-08-10T11:28:22.430Z,29.30
2022-08-10T11:29:22.414Z,28.92
2022-08-10T11:30:22.427Z,28.77
2022-08-10T11:31:22.410Z,29.17
2022-08-10T11:32:22.498Z,28.30
2022-08-10T11:33:32.584Z,27.83
2022-08-10T11:34:47.729Z,27.87
2022-08-10T11:35:23.458Z,28.24
2022-08-10T11:36:22.410Z,28.20
2022-08-10T11:37:22.376Z,28.36
2022-08-10T11:38:31.264Z,28.45
2022-08-10T11:39:24.403Z,28.61
2022-08-10T11:40:22.338Z,28.76
2022-08-10T11:42:10.149Z,28.87
2022-08-10T11:42:33.203Z,29.11
2022-08-10T11:43:24.386Z,28.89
2022-08-10T11:44:22.309Z,28.65
2022-08-10T11:45:22.335Z,28.55
2022-08-10T11:46:28.526Z,28.79
2022-08-10T11:47:24.344Z,28.92
2022-08-10T11:48:53.559Z,29.14
2022-08-10T11:49:23.387Z,28.94
2022-08-10T11:50:22.314Z,28.85
2022-08-10T11:51:22.272Z,28.97
2022-08-10T11:52:22.293Z,29.29
2022-08-10T11:53:22.308Z,29.30
2022-08-10T11:54:22.272Z,29.21
2022-08-10T11:55:22.253Z,28.60
2022-08-10T11:56:22.281Z,27.98
2022-08-10T11:57:22.247Z,27.98
2022-08-10T11:58:22.281Z,28.36
2022-08-10T11:59:22.237Z,28.51
2022-08-10T12:00:22.227Z,28.64
2022-08-10T12:01:22.235Z,28.91
2022-08-10T12:02:22.237Z,29.05
2022-08-10T12:03:22.231Z,29.10
2022-08-10T12:04:22.195Z,29.17
2022-08-10T12:05:22.225Z,29.37
2022-08-10T12:06:53.718Z,29.52
2022-08-10T12:10:03.890Z,29.74
2022-08-10T12:10:04.375Z,29.67
2022-08-10T12:10:10.583Z,29.82
2022-08-10T12:10:24.197Z,29.63
2022-08-10T12:11:24.478Z,29.47
2022-08-10T12:12:22.145Z,29.76
2022-08-10T12:13:22.175Z,29.94
2022-08-10T12:14:23.044Z,29.70
2022-08-10T12:15:23.138Z,29.64
2022-08-10T12:16:22.211Z,29.85
2022-08-10T12:17:22.107Z,30.07
2022-08-10T12:18:22.195Z,30.07
2022-08-10T12:19:22.174Z,29.51
2022-08-10T12:20:22.122Z,29.54
2022-08-10T12:21:22.431Z,29.52
2022-08-10T12:22:22.067Z,29.74
2022-08-10T12:23:22.069Z,30.10
2022-08-10T12:24:22.068Z,29.79
2022-08-10T12:25:57.691Z,29.69
2022-08-10T12:26:23.052Z,29.86
2022-08-10T12:27:22.024Z,29.73
2022-08-10T12:28:22.034Z,29.85
2022-08-10T12:29:25.392Z,29.54
2022-08-10T12:30:23.045Z,29.71
2022-08-10T12:31:21.992Z,29.78
2022-08-10T12:32:24.712Z,29.85
2022-08-10T12:33:22.006Z,29.15
2022-08-10T12:34:21.990Z,28.92
2022-08-10T12:35:25.990Z,29.14
2022-08-10T12:36:21.991Z,29.42
2022-08-10T12:37:22.026Z,29.51
2022-08-10T12:38:21.992Z,29.84
2022-08-10T12:39:22.046Z,29.92
2022-08-10T12:40:35.018Z,30.13
2022-08-10T12:41:44.032Z,30.08
2022-08-10T12:42:38.808Z,29.05
2022-08-10T12:44:04.219Z,28.89
2022-08-10T12:44:22.934Z,29.07
2022-08-10T12:45:22.895Z,29.10
2022-08-10T12:46:21.990Z,28.95
2022-08-10T12:47:21.896Z,29.37
2022-08-10T12:48:21.874Z,29.47
2022-08-10T12:49:21.898Z,29.47
2022-08-10T12:50:33.470Z,29.44
2022-08-10T12:51:22.941Z,29.30
2022-08-10T12:52:21.883Z,29.05